createdAt,value
2022-11-24T00:01:30.113Z,10.85
2022-11-24T00:04:01.986Z,11.18
2022-11-24T00:06:30.494Z,10.93
2022-11-24T00:08:58.011Z,11.13
2022-11-24T00:11:27.562Z,11.82
2022-11-24T00:13:54.213Z,10.65
2022-11-24T00:16:23.522Z,11.20
2022-11-24T00:18:52.389Z,11.55
2022-11-24T00:21:20.458Z,12.05
2022-11-24T00:23:47.949Z,10.85
2022-11-24T00:26:23.316Z,12.13
2022-11-24T00:28:51.393Z,11.60
2022-11-24T00:31:32.414Z,12.57
2022-11-24T00:34:01.322Z,11.60
2022-11-24T00:36:30.700Z,12.13
2022-11-24T00:39:00.197Z,12.00
2022-11-24T00:41:27.794Z,11.40
2022-11-24T00:43:54.566Z,12.13
2022-11-24T00:46:21.601Z,12.25
2022-11-24T00:48:48.464Z,11.27
2022-11-24T00:51:16.846Z,11.70
2022-11-24T00:53:43.842Z,12.38
2022-11-24T00:56:11.136Z,10.73
2022-11-24T00:58:38.481Z,10.73
2022-11-24T01:01:14.620Z,10.45
2022-11-24T01:03:42.150Z,11.00
2022-11-24T01:06:23.695Z,10.00
2022-11-24T01:08:50.788Z,9.27
2022-11-24T01:11:21.718Z,8.85
2022-11-24T01:13:52.234Z,8.55
2022-11-24T01:16:24.761Z,8.18
2022-11-24T01:18:51.790Z,7.38
2022-11-24T01:21:19.113Z,7.75
2022-11-24T01:23:45.894Z,8.32
2022-11-24T01:26:15.532Z,7.97
2022-11-24T01:28:46.572Z,6.60
2022-11-24T01:31:15.093Z,6.30
2022-11-24T01:33:42.195Z,6.43
2022-11-24T01:36:08.731Z,6.45
2022-11-24T01:38:35.171Z,6.15
2022-11-24T01:41:28.018Z,6.43
2022-11-24T01:43:55.824Z,6.32
2022-11-24T01:46:45.812Z,6.70
2022-11-24T01:49:17.932Z,5.73
2022-11-24T01:51:53.101Z,5.80
2022-11-24T01:54:36.471Z,6.57
2022-11-24T01:57:29.563Z,5.35
2022-11-24T02:00:04.682Z,6.13
2022-11-24T02:02:31.284Z,5.07
2022-11-24T02:05:03.091Z,5.43
2022-11-24T02:07:30.674Z,5.63
2022-11-24T02:10:04.602Z,6.68
2022-11-24T02:12:31.545Z,5.22
2022-11-24T02:14:59.193Z,5.18
2022-11-24T02:17:25.609Z,6.15
2022-11-24T02:19:57.826Z,5.72
2022-11-24T02:23:01.376Z,6.18
2022-11-24T02:25:58.530Z,5.18
2022-11-24T02:28:29.959Z,4.88
2022-11-24T02:30:58.715Z,6.40
2022-11-24T02:33:25.927Z,5.20
2022-11-24T02:35:53.185Z,6.07
2022-11-24T02:38:28.614Z,5.90
2022-11-24T02:40:55.049Z,5.22
2022-11-24T02:43:23.455Z,5.03
2022-11-24T02:45:50.092Z,5.15
2022-11-24T02:48:17.847Z,5.72
2022-11-24T02:50:44.266Z,5.03
2022-11-24T02:53:10.805Z,4.95
2022-11-24T02:55:37.254Z,5.15
2022-11-24T02:58:03.725Z,4.93
2022-11-24T03:00:30.430Z,4.28
2022-11-24T03:02:57.271Z,5.50
2022-11-24T03:05:24.097Z,4.43
2022-11-24T03:07:50.614Z,5.55
2022-11-24T03:10:17.157Z,5.18
2022-11-24T03:12:43.685Z,4.47
2022-11-24T03:15:10.588Z,4.13
2022-11-24T03:17:37.173Z,4.80
2022-11-24T03:20:05.193Z,3.72
2022-11-24T03:22:32.022Z,4.50
2022-11-24T03:24:59.172Z,3.80
2022-11-24T03:27:25.739Z,4.38
2022-11-24T03:29:52.157Z,3.90
2022-11-24T03:32:18.660Z,4.45
2022-11-24T03:34:45.109Z,3.78
2022-11-24T03:37:11.913Z,4.78
2022-11-24T03:39:38.592Z,4.95
2022-11-24T03:42:05.447Z,3.85
2022-11-24T03:44:32.101Z,3.83
2022-11-24T03:46:58.774Z,4.32
2022-11-24T03:49:25.231Z,3.95
2022-11-24T03:51:51.653Z,3.58
2022-11-24T03:54:18.192Z,4.93
2022-11-24T03:56:44.704Z,4.65
2022-11-24T03:59:11.261Z,4.38
2022-11-24T04:01:37.819Z,3.55
2022-11-24T04:04:04.710Z,3.38
2022-11-24T04:06:31.178Z,3.28
2022-11-24T04:08:57.646Z,4.22
2022-11-24T04:11:42.817Z,4.00
2022-11-24T04:14:13.600Z,4.28
2022-11-24T04:16:40.838Z,4.45
2022-11-24T04:19:07.385Z,4.72
2022-11-24T04:21:33.806Z,4.72
2022-11-24T04:24:00.444Z,3.38
2022-11-24T04:26:27.534Z,3.53
2022-11-24T04:28:54.213Z,4.13
2022-11-24T04:31:20.748Z,3.55
2022-11-24T04:33:47.314Z,3.92
2022-11-24T04:36:13.741Z,3.78
2022-11-24T04:39:23.332Z,3.60
2022-11-24T04:41:26.568Z,4.85
2022-11-24T04:43:53.014Z,3.35
2022-11-24T04:46:19.820Z,4.25
2022-11-24T04:48:46.312Z,3.83
2022-11-24T04:51:14.042Z,4.72
2022-11-24T04:53:40.506Z,3.60
2022-11-24T04:56:07.528Z,4.05
2022-11-24T04:58:34.176Z,4.40
2022-11-24T05:01:00.666Z,4.25
2022-11-24T05:03:27.310Z,4.00
2022-11-24T05:05:53.763Z,4.63
2022-11-24T05:08:20.431Z,4.57
2022-11-24T05:10:46.847Z,5.35
2022-11-24T05:13:13.629Z,4.90
2022-11-24T05:15:41.854Z,4.88
2022-11-24T05:18:12.627Z,4.85
2022-11-24T05:23:07.512Z,4.07
2022-11-24T05:25:35.095Z,5.32
2022-11-24T05:28:09.767Z,4.13
2022-11-24T05:30:38.736Z,5.13
2022-11-24T05:33:12.095Z,3.67
2022-11-24T05:35:38.587Z,4.10
2022-11-24T05:38:05.248Z,4.20
2022-11-24T05:40:32.035Z,4.32
2022-11-24T05:42:59.309Z,3.60
2022-11-24T05:45:25.778Z,4.47
2022-11-24T05:47:53.106Z,5.03
2022-11-24T05:50:21.789Z,4.53
2022-11-24T05:52:49.185Z,5.15
2022-11-24T05:55:16.117Z,3.72
2022-11-24T05:57:42.657Z,3.95
2022-11-24T06:00:10.252Z,3.80
2022-11-24T06:02:38.499Z,4.60
2022-11-24T06:05:05.398Z,3.97
2022-11-24T06:07:32.101Z,4.65
2022-11-24T06:09:58.752Z,4.05
2022-11-24T06:12:25.502Z,3.95
2022-11-24T06:14:52.266Z,4.05
2022-11-24T06:17:18.913Z,4.18
2022-11-24T06:19:48.047Z,4.15
2022-11-24T06:22:21.935Z,3.85
2022-11-24T06:24:50.819Z,3.45
2022-11-24T06:27:18.221Z,3.70
2022-11-24T06:29:45.209Z,3.58
2022-11-24T06:32:11.959Z,4.45
2022-11-24T06:34:38.796Z,3.83
2022-11-24T06:37:05.736Z,5.40
2022-11-24T06:39:32.510Z,5.32
2022-11-24T06:41:59.378Z,4.55
2022-11-24T06:44:26.688Z,4.22
2022-11-24T06:46:53.437Z,3.95
2022-11-24T06:49:20.143Z,4.00
2022-11-24T06:51:46.982Z,3.30
2022-11-24T06:54:19.877Z,3.78
2022-11-24T06:56:46.735Z,4.38
2022-11-24T06:59:18.872Z,3.70
2022-11-24T07:01:46.949Z,4.18
2022-11-24T07:04:14.846Z,4.70
2022-11-24T07:06:42.411Z,4.50
2022-11-24T07:09:10.686Z,4.40
2022-11-24T07:11:37.757Z,6.43
2022-11-24T07:14:05.393Z,4.97
2022-11-24T07:16:32.620Z,4.07
2022-11-24T07:19:00.075Z,4.13
2022-11-24T07:21:28.996Z,4.38
2022-11-24T07:23:57.119Z,4.88
2022-11-24T07:26:25.011Z,6.53
2022-11-24T07:28:52.121Z,5.70
2022-11-24T07:31:21.244Z,5.07
2022-11-24T07:33:56.370Z,4.82
2022-11-24T07:36:24.079Z,4.72
2022-11-24T07:38:51.099Z,4.10
2022-11-24T07:41:19.791Z,3.38
2022-11-24T07:43:47.181Z,4.38
2022-11-24T07:46:16.588Z,3.53
2022-11-24T07:48:43.486Z,3.72
2022-11-24T07:51:12.563Z,3.28
2022-11-24T07:53:39.730Z,3.33
2022-11-24T07:56:07.263Z,3.65
2022-11-24T07:58:36.824Z,4.63
2022-11-24T08:01:15.238Z,3.35
2022-11-24T08:03:43.253Z,2.95
2022-11-24T08:08:58.270Z,3.55
2022-11-24T08:11:25.578Z,3.25
2022-11-24T08:13:55.342Z,4.07
2022-11-24T08:16:22.218Z,3.70
2022-11-24T08:18:51.423Z,3.20
2022-11-24T08:21:18.426Z,3.78
2022-11-24T08:23:47.848Z,3.47
2022-11-24T08:26:18.961Z,3.47
2022-11-24T08:28:46.854Z,2.90
2022-11-24T08:31:16.462Z,3.42
2022-11-24T08:33:43.238Z,3.08
2022-11-24T08:36:15.252Z,3.17
2022-11-24T08:38:42.348Z,3.95
2022-11-24T08:41:12.079Z,3.00
2022-11-24T08:43:54.941Z,3.28
2022-11-24T08:46:22.370Z,3.15
2022-11-24T08:48:55.478Z,3.50
2022-11-24T08:51:25.069Z,2.47
2022-11-24T08:54:15.337Z,3.22
2022-11-24T08:56:57.224Z,3.20
2022-11-24T08:59:24.128Z,2.20
2022-11-24T09:01:55.352Z,2.90
2022-11-24T09:04:22.092Z,2.20
2022-11-24T09:06:49.265Z,2.45
2022-11-24T09:09:23.057Z,2.50
2022-11-24T09:11:49.994Z,2.25
2022-11-24T09:14:16.782Z,2.08
2022-11-24T09:16:43.781Z,2.63
2022-11-24T09:19:10.734Z,3.60
2022-11-24T09:21:38.961Z,2.78
2022-11-24T09:24:10.394Z,2.20
2022-11-24T09:26:43.113Z,3.75
2022-11-24T09:29:13.746Z,2.30
2022-11-24T09:31:40.775Z,2.63
2022-11-24T09:34:12.535Z,2.92
2022-11-24T09:36:39.115Z,2.72
2022-11-24T09:39:05.965Z,2.60
2022-11-24T09:41:57.566Z,2.25
2022-11-24T09:44:55.079Z,2.83
2022-11-24T09:47:40.487Z,2.45
2022-11-24T09:50:27.960Z,2.30
2022-11-24T09:53:06.876Z,2.42
2022-11-24T09:55:47.340Z,2.78
2022-11-24T09:58:52.877Z,2.63
2022-11-24T10:01:41.582Z,2.65
2022-11-24T10:04:24.914Z,1.90
2022-11-24T10:07:00.549Z,2.47
2022-11-24T10:10:05.038Z,2.25
2022-11-24T10:13:18.792Z,2.28
2022-11-24T10:16:00.907Z,1.90
2022-11-24T10:18:42.674Z,1.90
2022-11-24T10:21:31.203Z,2.75
2022-11-24T10:24:19.860Z,2.00
2022-11-24T10:26:56.858Z,2.25
2022-11-24T10:29:30.079Z,1.60
2022-11-24T10:32:03.835Z,2.20
2022-11-24T10:34:46.791Z,2.20
2022-11-24T10:37:43.304Z,1.88
2022-11-24T10:40:26.906Z,1.98
2022-11-24T10:43:05.308Z,2.53
2022-11-24T10:45:32.178Z,2.20
2022-11-24T10:48:00.364Z,2.40
2022-11-24T10:53:13.094Z,2.67
2022-11-24T10:55:55.109Z,2.22
2022-11-24T10:58:26.778Z,2.42
2022-11-24T11:00:55.072Z,1.80
2022-11-24T11:03:33.034Z,2.20
2022-11-24T11:06:15.909Z,2.22
2022-11-24T11:08:42.772Z,2.35
2022-11-24T11:11:21.493Z,2.17
2022-11-24T11:14:01.610Z,2.05
2022-11-24T11:16:50.881Z,2.13
2022-11-24T11:19:50.388Z,2.47
2022-11-24T11:22:55.802Z,2.53
2022-11-24T11:25:28.208Z,2.15
2022-11-24T11:28:18.275Z,2.17
2022-11-24T11:31:16.361Z,2.15
2022-11-24T11:34:21.828Z,2.00
2022-11-24T11:36:54.873Z,1.92
2022-11-24T11:39:49.016Z,2.00
2022-11-24T11:43:00.648Z,2.20
2022-11-24T11:45:56.555Z,2.70
2022-11-24T11:48:40.674Z,2.15
2022-11-24T11:51:28.219Z,1.60
2022-11-24T11:54:10.257Z,2.15
2022-11-24T11:56:45.479Z,1.50
2022-11-24T11:59:32.858Z,1.92
2022-11-24T12:02:47.277Z,1.77
2022-11-24T12:05:47.609Z,2.03
2022-11-24T12:08:20.481Z,1.30
2022-11-24T12:11:08.013Z,1.88
2022-11-24T12:13:56.164Z,2.45
2022-11-24T12:16:45.502Z,2.53
2022-11-24T12:19:30.871Z,1.70
2022-11-24T12:22:15.705Z,2.45
2022-11-24T12:25:03.441Z,1.92
2022-11-24T12:28:00.015Z,2.25
2022-11-24T12:30:36.013Z,2.30
2022-11-24T12:33:25.507Z,2.20
2022-11-24T12:36:03.639Z,2.13
2022-11-24T12:38:54.680Z,2.35
2022-11-24T12:41:42.876Z,3.80
2022-11-24T12:44:36.804Z,2.42
2022-11-24T12:47:25.958Z,2.58
2022-11-24T12:49:55.735Z,2.45
2022-11-24T12:52:29.935Z,2.03
2022-11-24T12:54:57.244Z,2.17
2022-11-24T12:57:41.864Z,2.33
2022-11-24T13:00:20.696Z,1.80
2022-11-24T13:02:56.893Z,2.85
2022-11-24T13:05:58.856Z,2.20
2022-11-24T13:08:27.813Z,2.30
2022-11-24T13:10:57.178Z,2.13
2022-11-24T13:13:30.042Z,2.00
2022-11-24T13:19:19.383Z,2.13
2022-11-24T13:21:59.646Z,1.95
2022-11-24T13:24:37.785Z,2.75
2022-11-24T13:27:27.021Z,1.60
2022-11-24T13:29:54.420Z,2.00
2022-11-24T13:32:21.321Z,1.85
2022-11-24T13:34:55.253Z,1.70
2022-11-24T13:37:33.911Z,1.90
2022-11-24T13:40:29.930Z,2.90
2022-11-24T13:43:37.046Z,1.95
2022-11-24T13:46:12.885Z,2.03
2022-11-24T13:48:52.106Z,2.63
2022-11-24T13:51:43.619Z,1.70
2022-11-24T13:54:24.338Z,2.33
2022-11-24T13:57:40.720Z,2.15
2022-11-24T14:00:27.914Z,1.95
2022-11-24T14:04:32.564Z,1.80
2022-11-24T14:07:28.166Z,1.90
2022-11-24T14:10:02.300Z,1.95
2022-11-24T14:12:51.211Z,1.95
2022-11-24T14:15:29.516Z,2.53
2022-11-24T14:18:21.681Z,2.30
2022-11-24T14:20:48.586Z,2.42
2022-11-24T14:23:15.439Z,2.30
2022-11-24T14:29:26.019Z,2.50
2022-11-24T14:31:55.190Z,1.85
2022-11-24T14:34:23.829Z,2.80
2022-11-24T14:39:23.910Z,2.30
2022-11-24T14:41:58.904Z,3.22
2022-11-24T14:44:32.644Z,2.95
2022-11-24T14:47:08.361Z,2.20
2022-11-24T14:50:05.924Z,2.63
2022-11-24T14:52:33.379Z,2.97
2022-11-24T14:55:21.449Z,2.08
2022-11-24T14:57:48.538Z,2.50
2022-11-24T15:00:29.800Z,3.05
2022-11-24T15:03:02.212Z,2.63
2022-11-24T15:06:01.130Z,2.58
2022-11-24T15:08:36.720Z,2.72
2022-11-24T15:11:21.239Z,2.35
2022-11-24T15:13:54.806Z,2.65
2022-11-24T15:16:25.131Z,2.03
2022-11-24T15:19:02.255Z,2.13
2022-11-24T15:21:34.129Z,3.58
2022-11-24T15:24:16.224Z,3.03
2022-11-24T15:26:46.679Z,2.55
2022-11-24T15:29:14.161Z,2.25
2022-11-24T15:31:44.218Z,2.45
2022-11-24T15:34:17.679Z,3.05
2022-11-24T15:36:44.821Z,2.67
2022-11-24T15:39:21.523Z,2.83
2022-11-24T15:41:48.559Z,3.35
2022-11-24T15:44:17.862Z,3.28
2022-11-24T15:46:48.098Z,2.85
2022-11-24T15:49:16.342Z,2.35
2022-11-24T15:51:45.703Z,3.13
2022-11-24T16:02:44.389Z,2.47
2022-11-24T16:06:05.355Z,3.20
2022-11-24T16:08:42.290Z,2.58
2022-11-24T16:11:15.054Z,2.60
2022-11-24T16:13:45.663Z,3.08
2022-11-24T16:16:18.322Z,2.95
2022-11-24T16:18:45.545Z,2.60
2022-11-24T16:21:12.794Z,3.78
2022-11-24T16:23:42.858Z,3.47
2022-11-24T16:26:12.956Z,3.88
2022-11-24T16:28:40.900Z,4.82
2022-11-24T16:31:10.147Z,4.10
2022-11-24T16:33:40.796Z,5.13
2022-11-24T16:36:17.910Z,3.92
2022-11-24T16:39:00.752Z,3.42
2022-11-24T16:41:32.207Z,4.05
2022-11-24T16:44:03.152Z,4.45
2022-11-24T16:46:30.298Z,3.58
2022-11-24T16:49:01.112Z,3.45
2022-11-24T16:51:34.653Z,3.15
2022-11-24T16:54:03.826Z,3.45
2022-11-24T16:56:31.773Z,3.92
2022-11-24T16:59:01.780Z,4.63
2022-11-24T17:01:30.226Z,3.57
2022-11-24T17:04:11.064Z,4.85
2022-11-24T17:07:01.633Z,4.88
2022-11-24T17:10:11.409Z,4.90
2022-11-24T17:12:41.295Z,4.95
2022-11-24T17:15:33.435Z,5.32
2022-11-24T17:21:02.032Z,4.78
2022-11-24T17:23:38.524Z,5.63
2022-11-24T17:26:08.128Z,4.57
2022-11-24T17:28:36.037Z,5.28
2022-11-24T17:31:28.633Z,6.00
2022-11-24T17:34:00.815Z,6.28
2022-11-24T17:36:31.035Z,6.30
2022-11-24T17:39:05.916Z,6.80
2022-11-24T17:41:35.474Z,6.32
2022-11-24T17:44:06.636Z,6.00
2022-11-24T17:46:33.820Z,6.18
2022-11-24T17:49:43.448Z,5.63
2022-11-24T17:52:24.241Z,5.22
2022-11-24T18:14:12.806Z,7.25
2022-11-24T18:16:42.788Z,7.72
2022-11-24T18:19:23.178Z,7.40
2022-11-24T18:22:36.597Z,7.65
2022-11-24T18:25:12.071Z,15.13
2022-11-24T18:27:57.100Z,8.65
2022-11-24T18:30:28.892Z,9.75
2022-11-24T18:34:01.165Z,10.63
2022-11-24T18:36:40.059Z,8.32
2022-11-24T18:39:10.199Z,12.50
2022-11-24T18:41:52.225Z,14.07
2022-11-24T18:44:19.790Z,11.50
2022-11-24T18:46:54.195Z,15.27
2022-11-24T18:49:23.445Z,10.23
2022-11-24T18:51:56.185Z,9.52
2022-11-24T18:54:35.742Z,9.25
2022-11-24T18:57:31.003Z,10.00
2022-11-24T18:59:58.651Z,12.48
2022-11-24T19:02:25.630Z,9.68
2022-11-24T19:04:52.711Z,10.50
2022-11-24T19:07:22.665Z,11.73
2022-11-24T19:11:24.932Z,10.17
2022-11-24T19:12:45.746Z,11.23
2022-11-24T19:15:16.096Z,11.05
2022-11-24T19:17:47.398Z,10.85
2022-11-24T19:20:14.659Z,12.27
2022-11-24T19:23:07.977Z,16.65
2022-11-24T19:25:34.916Z,16.55
2022-11-24T19:28:01.916Z,10.90
2022-11-24T19:30:37.064Z,14.75
2022-11-24T19:36:15.881Z,14.98
2022-11-24T19:39:22.816Z,14.02
2022-11-24T19:42:53.516Z,14.32
2022-11-24T19:46:15.339Z,12.10
2022-11-24T19:58:15.229Z,9.88
2022-11-24T20:00:50.773Z,9.95
2022-11-24T20:10:14.112Z,9.95
2022-11-24T20:12:49.196Z,11.88
2022-11-24T20:15:29.490Z,14.35
2022-11-24T20:18:10.225Z,13.57
2022-11-24T20:20:45.517Z,12.70
2022-11-24T20:23:17.889Z,11.95
2022-11-24T20:30:12.294Z,10.57
2022-11-24T20:42:20.977Z,10.05
2022-11-24T20:45:17.018Z,10.55
2022-11-24T20:48:03.287Z,11.43
2022-11-24T20:50:33.482Z,12.02
2022-11-24T20:53:11.910Z,12.35
2022-11-24T21:16:54.164Z,10.57
2022-11-24T21:27:01.268Z,10.20
2022-11-24T21:29:42.072Z,9.65
2022-11-24T21:34:06.056Z,10.70
2022-11-24T21:40:50.288Z,10.68
2022-11-24T21:43:17.507Z,10.90
2022-11-24T21:45:44.722Z,18.38
2022-11-24T21:48:12.002Z,14.18
2022-11-24T21:50:38.916Z,13.70
2022-11-24T21:53:05.967Z,12.40
2022-11-24T21:55:32.734Z,10.98
2022-11-24T21:58:00.832Z,10.82
2022-11-24T22:00:27.659Z,10.40
2022-11-24T22:02:54.883Z,11.90
2022-11-24T22:05:21.655Z,11.15
2022-11-24T22:07:50.384Z,11.07
2022-11-24T22:10:17.528Z,11.13
2022-11-24T22:12:44.555Z,11.73
2022-11-24T22:15:13.761Z,9.90
2022-11-24T22:17:41.192Z,11.13
2022-11-24T22:20:08.779Z,10.18
2022-11-24T22:22:35.807Z,11.32
2022-11-24T22:25:03.181Z,11.30
2022-11-24T22:27:30.109Z,10.98
2022-11-24T22:30:00.285Z,12.57
2022-11-24T22:32:31.026Z,14.15
2022-11-24T22:35:00.578Z,13.82
2022-11-24T22:37:27.812Z,13.43
2022-11-24T22:39:57.217Z,12.55
2022-11-24T22:42:23.924Z,14.00
2022-11-24T22:52:35.552Z,13.13
2022-11-24T22:55:06.524Z,13.90
2022-11-24T22:57:33.489Z,12.95
2022-11-24T23:00:03.686Z,13.23
2022-11-24T23:02:30.422Z,12.68
2022-11-24T23:04:57.397Z,12.50
2022-11-24T23:07:24.331Z,13.27
2022-11-24T23:09:51.336Z,11.88
2022-11-24T23:12:18.542Z,12.40
2022-11-24T23:14:45.366Z,12.18
2022-11-24T23:17:12.384Z,12.40
2022-11-24T23:19:39.366Z,11.15
2022-11-24T23:22:06.470Z,12.57
2022-11-24T23:24:37.893Z,13.07
2022-11-24T23:27:05.640Z,13.38
2022-11-24T23:29:34.938Z,13.57
2022-11-24T23:32:01.879Z,12.18
2022-11-24T23:34:28.709Z,11.98
2022-11-24T23:36:55.498Z,11.98
2022-11-24T23:39:22.325Z,12.32
2022-11-24T23:41:49.240Z,12.55
2022-11-24T23:44:16.115Z,12.68
2022-11-24T23:46:45.291Z,12.43
2022-11-24T23:49:12.472Z,12.93
2022-11-24T23:51:42.206Z,12.65
2022-11-24T23:54:09.921Z,11.05
2022-11-24T23:56:40.140Z,12.65
2022-11-24T23:59:06.909Z,13.55
